createdAt,value
2023-03-20T00:00:52.547Z,3.78
2023-03-20T00:03:19.339Z,3.17
2023-03-20T00:05:46.032Z,3.47
2023-03-20T00:08:12.937Z,3.53
2023-03-20T00:10:45.521Z,4.07
2023-03-20T00:13:19.170Z,3.63
2023-03-20T00:15:46.056Z,3.55
2023-03-20T00:18:22.900Z,3.83
2023-03-20T00:20:50.815Z,3.60
2023-03-20T00:23:17.940Z,4.05
2023-03-20T00:25:46.505Z,4.82
2023-03-20T00:28:38.965Z,6.38
2023-03-20T00:31:27.765Z,5.43
2023-03-20T00:33:57.198Z,5.68
2023-03-20T00:36:24.331Z,5.07
2023-03-20T00:38:51.637Z,4.18
2023-03-20T00:41:24.960Z,4.50
2023-03-20T00:46:38.264Z,3.78
2023-03-20T00:49:05.522Z,3.88
2023-03-20T00:51:32.170Z,4.38
2023-03-20T00:53:58.950Z,4.10
2023-03-20T00:56:35.051Z,4.78
2023-03-20T00:59:02.940Z,4.38
2023-03-20T01:01:31.323Z,4.97
2023-03-20T01:03:59.135Z,4.82
2023-03-20T01:06:26.048Z,4.93
2023-03-20T01:08:52.629Z,5.30
2023-03-20T01:11:22.579Z,5.68
2023-03-20T01:13:49.401Z,5.53
2023-03-20T01:16:25.481Z,5.88
2023-03-20T01:18:52.777Z,5.80
2023-03-20T01:21:20.795Z,6.00
2023-03-20T01:23:48.487Z,5.75
2023-03-20T01:26:31.799Z,7.10
2023-03-20T01:28:58.395Z,6.55
2023-03-20T01:31:25.405Z,6.25
2023-03-20T01:33:52.226Z,6.75
2023-03-20T01:36:22.896Z,6.63
2023-03-20T01:38:57.151Z,6.90
2023-03-20T01:41:25.715Z,7.60
2023-03-20T01:43:53.323Z,7.93
2023-03-20T01:46:30.620Z,7.88
2023-03-20T01:49:29.508Z,7.95
2023-03-20T01:51:57.596Z,7.90
2023-03-20T01:54:29.389Z,8.32
2023-03-20T01:57:11.284Z,8.23
2023-03-20T01:59:45.662Z,7.53
2023-03-20T02:02:17.287Z,8.38
2023-03-20T02:04:47.911Z,7.40
2023-03-20T02:07:18.235Z,8.32
2023-03-20T02:09:47.829Z,8.15
2023-03-20T02:12:15.087Z,8.45
2023-03-20T02:14:41.719Z,7.97
2023-03-20T02:17:10.456Z,8.75
2023-03-20T02:20:14.676Z,9.38
2023-03-20T02:25:32.027Z,8.68
2023-03-20T02:28:29.281Z,8.63
2023-03-20T02:31:32.350Z,8.38
2023-03-20T02:34:29.603Z,8.93
2023-03-20T02:37:30.487Z,7.70
2023-03-20T02:40:16.086Z,8.40
2023-03-20T02:42:42.683Z,8.25
2023-03-20T02:45:12.361Z,8.57
2023-03-20T02:48:20.773Z,7.60
2023-03-20T02:50:55.097Z,7.78
2023-03-20T02:53:36.344Z,7.65
2023-03-20T02:56:02.878Z,7.57
2023-03-20T02:58:45.401Z,7.13
2023-03-20T03:01:18.016Z,6.72
2023-03-20T03:03:50.387Z,7.67
2023-03-20T03:06:29.947Z,6.93
2023-03-20T03:09:03.910Z,6.85
2023-03-20T03:11:34.269Z,6.43
2023-03-20T03:14:01.874Z,7.20
2023-03-20T03:16:35.305Z,6.90
2023-03-20T03:21:33.726Z,6.65
2023-03-20T03:24:00.514Z,6.93
2023-03-20T03:26:36.216Z,7.47
2023-03-20T03:29:11.434Z,6.43
2023-03-20T03:31:38.370Z,7.47
2023-03-20T03:34:05.802Z,7.22
2023-03-20T03:36:43.354Z,7.35
2023-03-20T03:39:24.734Z,7.30
2023-03-20T03:42:04.769Z,6.55
2023-03-20T03:44:55.637Z,7.03
2023-03-20T03:47:28.289Z,7.70
2023-03-20T03:50:03.930Z,7.38
2023-03-20T03:52:32.479Z,7.43
2023-03-20T03:55:07.048Z,7.32
2023-03-20T03:57:42.492Z,7.30
2023-03-20T04:00:13.356Z,7.75
2023-03-20T04:02:43.811Z,8.20
2023-03-20T04:05:11.943Z,7.10
2023-03-20T04:07:39.052Z,7.78
2023-03-20T04:10:06.194Z,7.82
2023-03-20T04:12:42.582Z,7.35
2023-03-20T04:15:09.984Z,8.25
2023-03-20T04:17:36.621Z,8.13
2023-03-20T04:20:04.489Z,7.28
2023-03-20T04:22:31.289Z,7.60
2023-03-20T04:24:58.345Z,8.40
2023-03-20T04:27:24.973Z,7.93
2023-03-20T04:29:51.580Z,8.27
2023-03-20T04:32:18.209Z,7.95
2023-03-20T04:34:44.859Z,7.53
2023-03-20T04:37:11.540Z,7.03
2023-03-20T04:39:38.344Z,7.68
2023-03-20T04:42:05.955Z,7.95
2023-03-20T04:44:32.729Z,7.35
2023-03-20T04:46:59.776Z,7.50
2023-03-20T04:49:26.898Z,7.60
2023-03-20T04:51:53.541Z,7.85
2023-03-20T04:54:20.629Z,7.13
2023-03-20T04:56:47.456Z,7.15
2023-03-20T04:59:14.159Z,7.22
2023-03-20T05:01:40.817Z,7.45
2023-03-20T05:04:07.592Z,6.60
2023-03-20T05:06:34.284Z,6.47
2023-03-20T05:09:01.394Z,7.03
2023-03-20T05:11:28.291Z,6.35
2023-03-20T05:13:54.965Z,7.05
2023-03-20T05:16:21.675Z,7.03
2023-03-20T05:18:48.309Z,7.25
2023-03-20T05:21:15.494Z,6.40
2023-03-20T05:23:42.088Z,6.65
2023-03-20T05:26:08.721Z,7.28
2023-03-20T05:28:35.377Z,6.97
2023-03-20T05:31:02.046Z,7.70
2023-03-20T05:33:28.820Z,6.85
2023-03-20T05:35:55.515Z,6.68
2023-03-20T05:38:25.778Z,7.32
2023-03-20T05:40:59.526Z,7.15
2023-03-20T05:43:26.950Z,7.70
2023-03-20T05:45:53.868Z,6.88
2023-03-20T05:48:20.577Z,7.30
2023-03-20T05:50:47.360Z,6.80
2023-03-20T05:53:14.157Z,7.35
2023-03-20T05:55:41.976Z,7.32
2023-03-20T05:58:08.577Z,7.55
2023-03-20T06:00:35.166Z,7.90
2023-03-20T06:03:01.834Z,6.88
2023-03-20T06:05:28.549Z,7.47
2023-03-20T06:07:55.148Z,8.00
2023-03-20T06:10:22.123Z,8.23
2023-03-20T06:12:48.909Z,8.18
2023-03-20T06:15:15.597Z,7.65
2023-03-20T06:17:42.273Z,7.25
2023-03-20T06:20:09.799Z,7.70
2023-03-20T06:22:36.511Z,8.35
2023-03-20T06:25:03.192Z,8.55
2023-03-20T06:27:31.048Z,8.40
2023-03-20T06:29:57.685Z,8.75
2023-03-20T06:32:24.421Z,8.73
2023-03-20T06:34:51.027Z,7.97
2023-03-20T06:37:17.617Z,8.25
2023-03-20T06:39:44.221Z,8.02
2023-03-20T06:42:15.009Z,8.50
2023-03-20T06:44:42.706Z,8.07
2023-03-20T06:47:09.390Z,8.48
2023-03-20T06:49:36.180Z,9.07
2023-03-20T06:52:03.157Z,8.38
2023-03-20T06:54:29.847Z,9.05
2023-03-20T06:56:56.444Z,8.30
2023-03-20T06:59:23.630Z,8.93
2023-03-20T07:01:50.443Z,9.63
2023-03-20T07:04:17.323Z,9.00
2023-03-20T07:06:43.972Z,8.23
2023-03-20T07:09:10.662Z,8.63
2023-03-20T07:11:37.241Z,8.93
2023-03-20T07:14:03.865Z,8.73
2023-03-20T07:16:30.805Z,9.18
2023-03-20T07:18:57.465Z,9.02
2023-03-20T07:21:24.311Z,9.43
2023-03-20T07:23:51.029Z,8.32
2023-03-20T07:26:17.862Z,9.07
2023-03-20T07:28:44.468Z,8.50
2023-03-20T07:31:20.593Z,8.07
2023-03-20T07:33:47.209Z,8.55
2023-03-20T07:36:13.833Z,8.50
2023-03-20T07:38:40.476Z,8.10
2023-03-20T07:41:07.288Z,9.15
2023-03-20T07:43:34.345Z,8.98
2023-03-20T07:46:05.819Z,8.65
2023-03-20T07:48:32.713Z,8.60
2023-03-20T07:50:59.350Z,9.20
2023-03-20T07:53:26.014Z,8.40
2023-03-20T07:55:52.635Z,8.52
2023-03-20T07:58:19.504Z,8.52
2023-03-20T08:00:46.405Z,8.25
2023-03-20T08:03:13.173Z,7.20
2023-03-20T08:05:40.428Z,8.30
2023-03-20T08:08:07.340Z,7.68
2023-03-20T08:10:34.050Z,8.07
2023-03-20T08:13:00.853Z,7.78
2023-03-20T08:15:27.472Z,7.35
2023-03-20T08:17:54.098Z,7.88
2023-03-20T08:20:21.683Z,7.35
2023-03-20T08:22:49.668Z,7.75
2023-03-20T08:25:17.204Z,8.82
2023-03-20T08:27:43.887Z,8.65
2023-03-20T08:30:11.506Z,7.75
2023-03-20T08:32:38.821Z,8.20
2023-03-20T08:35:06.115Z,8.45
2023-03-20T08:37:32.770Z,8.45
2023-03-20T08:39:59.392Z,8.60
2023-03-20T08:42:26.287Z,10.02
2023-03-20T08:44:52.866Z,9.38
2023-03-20T08:47:19.734Z,9.45
2023-03-20T08:49:46.417Z,9.38
2023-03-20T08:52:13.105Z,9.68
2023-03-20T08:54:39.720Z,10.63
2023-03-20T08:57:06.859Z,10.20
2023-03-20T08:59:33.581Z,9.70
2023-03-20T09:02:00.391Z,9.95
2023-03-20T09:04:27.859Z,9.65
2023-03-20T09:06:54.984Z,9.02
2023-03-20T09:09:26.966Z,9.52
2023-03-20T09:11:53.978Z,9.18
2023-03-20T09:14:20.653Z,8.85
2023-03-20T09:16:47.354Z,8.93
2023-03-20T09:19:13.998Z,8.65
2023-03-20T09:21:40.654Z,8.48
2023-03-20T09:24:07.516Z,7.80
2023-03-20T09:26:34.365Z,6.95
2023-03-20T09:29:01.027Z,10.00
2023-03-20T09:31:27.657Z,12.13
2023-03-20T09:33:54.340Z,8.13
2023-03-20T09:36:21.145Z,6.53
2023-03-20T09:38:47.802Z,7.00
2023-03-20T09:41:22.807Z,6.78
2023-03-20T09:44:14.169Z,7.00
2023-03-20T09:47:19.957Z,6.38
2023-03-20T09:50:05.913Z,5.68
2023-03-20T09:52:36.613Z,6.53
2023-03-20T09:55:14.157Z,6.65
2023-03-20T09:57:49.239Z,6.63
2023-03-20T10:00:21.009Z,6.40
2023-03-20T10:02:58.302Z,5.90
2023-03-20T10:05:31.984Z,7.25
2023-03-20T10:08:04.616Z,6.70
2023-03-20T10:10:54.426Z,7.72
2023-03-20T10:13:40.288Z,6.45
2023-03-20T10:16:35.329Z,6.68
2023-03-20T10:19:11.412Z,7.03
2023-03-20T10:21:46.218Z,6.95
2023-03-20T10:24:27.694Z,7.68
2023-03-20T10:26:58.077Z,10.35
2023-03-20T10:29:32.837Z,7.18
2023-03-20T10:32:05.633Z,6.82
2023-03-20T10:34:48.439Z,7.32
2023-03-20T10:37:20.569Z,7.03
2023-03-20T10:39:58.885Z,7.68
2023-03-20T10:42:36.904Z,6.72
2023-03-20T10:45:30.494Z,6.85
2023-03-20T10:48:00.045Z,10.43
2023-03-20T10:50:40.122Z,7.38
2023-03-20T10:53:07.936Z,7.25
2023-03-20T10:55:42.570Z,6.97
2023-03-20T10:58:24.674Z,6.75
2023-03-20T11:00:54.835Z,7.68
2023-03-20T11:03:32.761Z,7.97
2023-03-20T11:06:15.937Z,8.82
2023-03-20T11:08:48.161Z,7.25
2023-03-20T11:11:22.538Z,8.00
2023-03-20T11:13:49.350Z,8.07
2023-03-20T11:16:18.936Z,8.82
2023-03-20T11:18:47.049Z,8.50
2023-03-20T11:21:24.402Z,8.50
2023-03-20T11:23:51.758Z,8.57
2023-03-20T11:26:28.583Z,8.68
2023-03-20T11:28:59.767Z,8.15
2023-03-20T11:31:36.247Z,8.05
2023-03-20T11:34:11.499Z,9.20
2023-03-20T11:36:41.210Z,9.85
2023-03-20T11:39:25.238Z,9.32
2023-03-20T11:41:54.316Z,9.65
2023-03-20T11:44:36.537Z,28.05
2023-03-20T11:47:14.475Z,10.85
2023-03-20T11:49:52.843Z,10.63
2023-03-20T11:52:28.740Z,10.32
2023-03-20T11:54:58.656Z,10.63
2023-03-20T11:57:39.998Z,11.13
2023-03-20T12:00:22.637Z,12.30
2023-03-20T12:02:49.838Z,12.03
2023-03-20T12:05:37.088Z,12.95
2023-03-20T12:08:18.050Z,13.15
2023-03-20T12:10:53.856Z,12.10
2023-03-20T12:13:33.109Z,11.60
2023-03-20T12:16:06.425Z,12.18
2023-03-20T12:18:43.432Z,12.85
2023-03-20T12:21:24.019Z,11.40
2023-03-20T12:24:15.929Z,12.20
2023-03-20T12:26:55.886Z,12.70
2023-03-20T12:29:32.516Z,12.80
2023-03-20T12:32:14.579Z,12.05
2023-03-20T12:34:47.618Z,11.93
2023-03-20T12:37:18.135Z,11.45
2023-03-20T12:39:48.780Z,12.15
2023-03-20T12:42:36.883Z,11.27
2023-03-20T12:45:35.695Z,11.05
2023-03-20T12:48:30.161Z,13.65
2023-03-20T12:51:06.676Z,11.45
2023-03-20T12:53:55.126Z,12.10
2023-03-20T12:56:48.190Z,12.30
2023-03-20T12:59:47.419Z,11.15
2023-03-20T13:02:41.002Z,12.38
2023-03-20T13:05:40.436Z,12.85
2023-03-20T13:08:44.049Z,11.40
2023-03-20T13:11:26.929Z,11.23
2023-03-20T13:14:08.927Z,12.57
2023-03-20T13:17:01.780Z,11.18
2023-03-20T13:19:37.369Z,10.63
2023-03-20T13:22:15.267Z,11.15
2023-03-20T13:24:55.918Z,9.43
2023-03-20T13:28:04.368Z,9.45
2023-03-20T13:30:44.302Z,8.52
2023-03-20T13:33:26.043Z,8.82
2023-03-20T13:36:05.665Z,8.73
2023-03-20T13:38:40.180Z,8.20
2023-03-20T13:41:09.914Z,9.07
2023-03-20T13:43:46.229Z,10.95
2023-03-20T13:46:24.729Z,7.82
2023-03-20T13:48:54.823Z,7.65
2023-03-20T13:51:45.811Z,6.90
2023-03-20T13:54:39.227Z,7.03
2023-03-20T13:57:17.899Z,6.90
2023-03-20T14:00:06.198Z,6.93
2023-03-20T14:03:06.887Z,6.72
2023-03-20T14:05:39.596Z,6.05
2023-03-20T14:08:28.190Z,5.75
2023-03-20T14:11:05.209Z,6.20
2023-03-20T14:13:33.005Z,4.50
2023-03-20T14:16:03.223Z,5.38
2023-03-20T14:18:31.203Z,5.15
2023-03-20T14:21:00.990Z,5.18
2023-03-20T14:23:37.829Z,4.38
2023-03-20T14:26:19.122Z,4.65
2023-03-20T14:28:54.705Z,6.40
2023-03-20T14:31:42.062Z,5.60
2023-03-20T14:34:11.878Z,4.20
2023-03-20T14:37:01.923Z,4.82
2023-03-20T14:40:00.808Z,5.57
2023-03-20T14:42:36.511Z,7.13
2023-03-20T14:45:31.580Z,5.30
2023-03-20T14:48:09.482Z,4.45
2023-03-20T14:50:52.947Z,4.85
2023-03-20T14:53:21.028Z,4.20
2023-03-20T14:55:57.049Z,19.90
2023-03-20T14:59:00.145Z,4.60
2023-03-20T15:01:53.154Z,5.50
2023-03-20T15:04:41.852Z,5.35
2023-03-20T15:07:24.779Z,3.63
2023-03-20T15:09:55.193Z,3.75
2023-03-20T15:12:25.728Z,4.38
2023-03-20T15:15:00.784Z,4.22
2023-03-20T15:17:44.084Z,3.92
2023-03-20T15:20:19.846Z,4.47
2023-03-20T15:22:58.074Z,3.50
2023-03-20T15:25:46.103Z,3.83
2023-03-20T15:28:15.146Z,3.67
2023-03-20T15:30:45.695Z,4.18
2023-03-20T15:33:23.341Z,3.10
2023-03-20T15:35:51.726Z,2.67
2023-03-20T15:38:19.550Z,2.90
2023-03-20T15:40:50.927Z,2.92
2023-03-20T15:43:23.975Z,3.42
2023-03-20T15:46:02.972Z,4.00
2023-03-20T15:48:33.275Z,2.58
2023-03-20T15:51:06.656Z,2.80
2023-03-20T15:53:39.750Z,3.20
2023-03-20T15:56:18.823Z,3.10
2023-03-20T15:58:48.965Z,2.95
2023-03-20T16:01:22.407Z,2.78
2023-03-20T16:03:49.892Z,2.78
2023-03-20T16:06:21.336Z,2.55
2023-03-20T16:09:04.959Z,2.53
2023-03-20T16:11:41.045Z,2.60
2023-03-20T16:14:19.997Z,2.20
2023-03-20T16:16:50.113Z,2.67
2023-03-20T16:19:17.369Z,2.30
2023-03-20T16:21:49.015Z,2.60
2023-03-20T16:24:20.065Z,2.80
2023-03-20T16:26:50.861Z,2.65
2023-03-20T16:29:19.610Z,2.28
2023-03-20T16:31:54.642Z,2.45
2023-03-20T16:34:33.730Z,2.67
2023-03-20T16:37:05.944Z,2.90
2023-03-20T16:39:33.004Z,2.63
2023-03-20T16:42:23.979Z,2.72
2023-03-20T16:44:56.468Z,2.55
2023-03-20T16:47:32.783Z,2.57
2023-03-20T16:50:16.696Z,2.25
2023-03-20T16:52:48.062Z,2.40
2023-03-20T16:55:18.924Z,2.15
2023-03-20T16:57:49.554Z,2.10
2023-03-20T17:00:58.429Z,2.00
2023-03-20T17:03:30.658Z,2.05
2023-03-20T17:05:58.973Z,2.22
2023-03-20T17:08:35.183Z,2.30
2023-03-20T17:11:10.500Z,2.00
2023-03-20T17:13:37.135Z,2.22
2023-03-20T17:16:04.109Z,2.10
2023-03-20T17:18:30.927Z,1.90
2023-03-20T17:20:57.718Z,2.72
2023-03-20T17:23:24.345Z,2.30
2023-03-20T17:25:51.699Z,2.78
2023-03-20T17:28:22.200Z,2.38
2023-03-20T17:30:51.370Z,2.50
2023-03-20T17:33:20.924Z,3.10
2023-03-20T17:35:48.608Z,2.53
2023-03-20T17:38:18.698Z,2.60
2023-03-20T17:40:45.743Z,2.42
2023-03-20T17:43:14.471Z,2.17
2023-03-20T17:45:42.502Z,1.98
2023-03-20T17:48:20.908Z,2.13
2023-03-20T17:50:52.509Z,2.63
2023-03-20T17:53:25.482Z,2.10
2023-03-20T17:55:52.810Z,2.00
2023-03-20T17:58:22.460Z,1.95
2023-03-20T18:00:50.935Z,2.00
2023-03-20T18:03:18.195Z,2.17
2023-03-20T18:05:51.626Z,2.00
2023-03-20T18:08:21.285Z,2.00
2023-03-20T18:10:50.512Z,1.85
2023-03-20T18:13:20.836Z,1.77
2023-03-20T18:15:49.460Z,2.05
2023-03-20T18:18:16.341Z,1.80
2023-03-20T18:20:43.776Z,1.83
2023-03-20T18:23:10.514Z,2.33
2023-03-20T18:25:37.488Z,2.00
2023-03-20T18:28:06.832Z,1.90
2023-03-20T18:30:39.085Z,1.75
2023-03-20T18:33:06.263Z,2.27
2023-03-20T18:35:33.477Z,1.90
2023-03-20T18:38:00.619Z,2.15
2023-03-20T18:40:30.607Z,2.50
2023-03-20T18:42:57.974Z,2.72
2023-03-20T18:45:27.070Z,2.50
2023-03-20T18:47:54.959Z,2.03
2023-03-20T18:50:40.848Z,2.33
2023-03-20T18:53:09.728Z,1.90
2023-03-20T18:55:38.042Z,2.05
2023-03-20T18:58:06.170Z,2.25
2023-03-20T19:00:40.670Z,2.08
2023-03-20T19:03:08.440Z,2.40
2023-03-20T19:05:36.298Z,1.88
2023-03-20T19:08:03.452Z,2.50
2023-03-20T19:10:35.968Z,2.22
2023-03-20T19:13:04.448Z,2.10
2023-03-20T19:15:36.690Z,2.05
2023-03-20T19:18:05.810Z,1.98
2023-03-20T19:20:40.139Z,1.98
2023-03-20T19:23:09.034Z,1.70
2023-03-20T19:25:37.305Z,1.70
2023-03-20T19:28:05.213Z,2.17
2023-03-20T19:30:38.346Z,1.88
2023-03-20T19:33:06.776Z,1.90
2023-03-20T19:36:01.281Z,2.03
2023-03-20T19:38:22.118Z,2.28
2023-03-20T19:40:54.012Z,1.85
2023-03-20T19:43:21.929Z,1.70
2023-03-20T19:45:51.745Z,1.65
2023-03-20T19:48:23.509Z,2.10
2023-03-20T19:50:51.201Z,1.67
2023-03-20T19:53:21.213Z,2.00
2023-03-20T19:55:48.176Z,1.70
2023-03-20T19:58:14.800Z,2.00
2023-03-20T20:00:59.361Z,1.77
2023-03-20T20:03:27.968Z,1.60
2023-03-20T20:05:55.107Z,1.48
2023-03-20T20:08:44.274Z,2.10
2023-03-20T20:11:11.802Z,1.85
2023-03-20T20:13:53.441Z,1.73
2023-03-20T20:16:26.240Z,1.70
2023-03-20T20:18:52.869Z,1.70
2023-03-20T20:22:10.102Z,1.60
2023-03-20T20:24:06.312Z,1.83
2023-03-20T20:26:38.752Z,2.05
2023-03-20T20:29:07.046Z,1.67
2023-03-20T20:31:33.794Z,2.03
2023-03-20T20:34:52.850Z,1.77
2023-03-20T20:37:42.469Z,1.73
2023-03-20T20:39:34.155Z,1.73
2023-03-20T20:42:01.112Z,1.73
2023-03-20T20:44:27.908Z,1.48
2023-03-20T20:46:54.546Z,1.65
2023-03-20T20:49:21.462Z,1.58
2023-03-20T20:51:48.786Z,1.60
2023-03-20T20:54:16.084Z,1.23
2023-03-20T20:56:42.696Z,2.20
2023-03-20T20:59:09.448Z,2.05
2023-03-20T21:01:36.512Z,2.13
2023-03-20T21:04:03.276Z,1.70
2023-03-20T21:07:03.479Z,1.70
2023-03-20T21:09:16.519Z,2.22
2023-03-20T21:11:43.178Z,1.52
2023-03-20T21:14:09.810Z,1.60
2023-03-20T21:16:36.402Z,1.52
2023-03-20T21:19:03.057Z,1.80
2023-03-20T21:21:30.332Z,1.40
2023-03-20T21:23:57.075Z,1.55
2023-03-20T21:26:23.757Z,1.85
2023-03-20T21:28:51.458Z,1.80
2023-03-20T21:31:26.806Z,1.58
2023-03-20T21:33:55.485Z,1.63
2023-03-20T21:36:23.388Z,1.25
2023-03-20T21:39:08.751Z,1.45
2023-03-20T21:41:39.874Z,1.55
2023-03-20T21:44:07.968Z,1.42
2023-03-20T21:52:59.887Z,1.40
2023-03-20T22:03:43.977Z,1.02
2023-03-20T22:12:33.533Z,1.20
2023-03-20T22:15:22.970Z,1.50
2023-03-20T22:34:53.767Z,1.42
2023-03-20T22:45:10.622Z,1.77
2023-03-20T22:47:37.659Z,1.70
2023-03-20T22:50:05.314Z,2.42
2023-03-20T22:52:47.715Z,2.70
2023-03-20T22:57:52.862Z,3.25
2023-03-20T23:00:30.757Z,3.47
2023-03-20T23:03:13.855Z,3.35
2023-03-20T23:05:44.456Z,3.30
2023-03-20T23:08:12.218Z,3.30
2023-03-20T23:10:44.053Z,3.03
2023-03-20T23:13:11.361Z,3.08
2023-03-20T23:15:38.757Z,2.40
2023-03-20T23:18:05.999Z,2.97
2023-03-20T23:20:33.356Z,2.78
2023-03-20T23:22:59.986Z,1.73
2023-03-20T23:25:38.285Z,1.95
2023-03-20T23:28:07.377Z,1.98
2023-03-20T23:30:44.327Z,1.88
2023-03-20T23:33:11.886Z,2.20
2023-03-20T23:35:38.609Z,1.85
2023-03-20T23:38:05.307Z,1.50
2023-03-20T23:40:32.208Z,1.73
2023-03-20T23:42:58.849Z,1.60
2023-03-20T23:45:25.502Z,2.20
2023-03-20T23:47:52.227Z,2.30
2023-03-20T23:50:30.130Z,1.80
2023-03-20T23:53:13.040Z,2.10
2023-03-20T23:55:40.305Z,2.13
2023-03-20T23:58:07.498Z,2.15
